sensor_id;sensor_type;location;lat;lon;timestamp;temperature;humidity
67249;SHT31;63247;54.300;18.592;2022-10-31T00:00:22;9.40;99.99
67249;SHT31;63247;54.300;18.592;2022-10-31T00:02:47;9.40;99.99
67249;SHT31;63247;54.300;18.592;2022-10-31T00:05:13;9.42;99.99
67249;SHT31;63247;54.300;18.592;2022-10-31T00:07:38;9.47;99.99
67249;SHT31;63247;54.300;18.592;2022-10-31T00:10:04;9.42;99.99
67249;SHT31;63247;54.300;18.592;2022-10-31T00:12:30;9.33;99.99
67249;SHT31;63247;54.300;18.592;2022-10-31T00:14:55;9.36;99.99
67249;SHT31;63247;54.300;18.592;2022-10-31T00:17:21;9.27;99.99
67249;SHT31;63247;54.300;18.592;2022-10-31T00:19:46;9.25;99.99
67249;SHT31;63247;54.300;18.592;2022-10-31T00:22:12;9.33;99.99
67249;SHT31;63247;54.300;18.592;2022-10-31T00:24:37;9.29;99.99
67249;SHT31;63247;54.300;18.592;2022-10-31T00:27:03;9.37;99.99
67249;SHT31;63247;54.300;18.592;2022-10-31T00:29:28;9.30;99.99
67249;SHT31;63247;54.300;18.592;2022-10-31T00:31:53;9.25;99.99
67249;SHT31;63247;54.300;18.592;2022-10-31T00:34:19;9.16;99.99
67249;SHT31;63247;54.300;18.592;2022-10-31T00:36:44;9.16;99.99
67249;SHT31;63247;54.300;18.592;2022-10-31T00:39:10;9.02;99.99
67249;SHT31;63247;54.300;18.592;2022-10-31T00:41:35;8.87;99.99
67249;SHT31;63247;54.300;18.592;2022-10-31T00:44:00;8.96;99.99
67249;SHT31;63247;54.300;18.592;2022-10-31T00:46:26;8.98;99.99
67249;SHT31;63247;54.300;18.592;2022-10-31T00:48:52;9.08;99.99
67249;SHT31;63247;54.300;18.592;2022-10-31T00:51:17;8.98;99.99
67249;SHT31;63247;54.300;18.592;2022-10-31T00:53:43;8.89;99.99
67249;SHT31;63247;54.300;18.592;2022-10-31T00:56:08;8.88;99.99
67249;SHT31;63247;54.300;18.592;2022-10-31T00:58:34;8.85;99.99
67249;SHT31;63247;54.300;18.592;2022-10-31T01:00:59;8.96;99.99
67249;SHT31;63247;54.300;18.592;2022-10-31T01:03:27;8.98;99.99
67249;SHT31;63247;54.300;18.592;2022-10-31T01:06:08;9.23;99.99
67249;SHT31;63247;54.300;18.592;2022-10-31T01:08:35;9.18;99.99
67249;SHT31;63247;54.300;18.592;2022-10-31T01:11:22;9.23;99.99
67249;SHT31;63247;54.300;18.592;2022-10-31T01:13:46;9.15;99.99
67249;SHT31;63247;54.300;18.592;2022-10-31T01:16:15;9.09;99.99
67249;SHT31;63247;54.300;18.592;2022-10-31T01:18:41;9.19;99.99
67249;SHT31;63247;54.300;18.592;2022-10-31T01:21:12;9.32;99.99
67249;SHT31;63247;54.300;18.592;2022-10-31T01:23:37;9.47;99.99
67249;SHT31;63247;54.300;18.592;2022-10-31T01:26:09;9.58;99.99
67249;SHT31;63247;54.300;18.592;2022-10-31T01:28:37;9.73;99.99
67249;SHT31;63247;54.300;18.592;2022-10-31T01:31:05;9.84;99.99
67249;SHT31;63247;54.300;18.592;2022-10-31T01:33:30;9.98;99.99
67249;SHT31;63247;54.300;18.592;2022-10-31T01:35:56;10.32;99.99
67249;SHT31;63247;54.300;18.592;2022-10-31T01:38:21;10.55;99.99
67249;SHT31;63247;54.300;18.592;2022-10-31T01:40:48;10.57;99.99
67249;SHT31;63247;54.300;18.592;2022-10-31T01:43:13;10.84;99.99
67249;SHT31;63247;54.300;18.592;2022-10-31T01:45:40;10.96;99.99
67249;SHT31;63247;54.300;18.592;2022-10-31T01:48:15;11.00;99.99
67249;SHT31;63247;54.300;18.592;2022-10-31T01:50:43;11.07;99.99
67249;SHT31;63247;54.300;18.592;2022-10-31T01:53:11;11.08;99.99
67249;SHT31;63247;54.300;18.592;2022-10-31T01:55:41;11.08;99.99
67249;SHT31;63247;54.300;18.592;2022-10-31T01:58:14;11.10;99.99
67249;SHT31;63247;54.300;18.592;2022-10-31T02:00:43;11.18;99.99
67249;SHT31;63247;54.300;18.592;2022-10-31T02:03:10;11.22;99.99
67249;SHT31;63247;54.300;18.592;2022-10-31T02:05:36;11.28;99.99
67249;SHT31;63247;54.300;18.592;2022-10-31T02:10:37;11.28;99.99
67249;SHT31;63247;54.300;18.592;2022-10-31T02:13:05;11.25;99.99
67249;SHT31;63247;54.300;18.592;2022-10-31T02:15:32;11.21;99.99
67249;SHT31;63247;54.300;18.592;2022-10-31T02:17:58;10.97;99.99
67249;SHT31;63247;54.300;18.592;2022-10-31T02:20:25;10.67;99.99
67249;SHT31;63247;54.300;18.592;2022-10-31T02:31:46;10.11;99.99
67249;SHT31;63247;54.300;18.592;2022-10-31T02:34:21;9.91;99.99
67249;SHT31;63247;54.300;18.592;2022-10-31T02:36:55;9.84;99.99
67249;SHT31;63247;54.300;18.592;2022-10-31T02:42:16;9.77;99.99
67249;SHT31;63247;54.300;18.592;2022-10-31T02:45:03;9.77;99.99
67249;SHT31;63247;54.300;18.592;2022-10-31T02:47:34;9.74;99.99
67249;SHT31;63247;54.300;18.592;2022-10-31T02:50:16;9.60;99.99
67249;SHT31;63247;54.300;18.592;2022-10-31T02:52:43;9.51;99.99
67249;SHT31;63247;54.300;18.592;2022-10-31T02:57:47;9.20;99.99
67249;SHT31;63247;54.300;18.592;2022-10-31T03:00:13;9.22;99.99
67249;SHT31;63247;54.300;18.592;2022-10-31T03:08:03;9.19;99.99
67249;SHT31;63247;54.300;18.592;2022-10-31T03:10:35;9.20;99.99
67249;SHT31;63247;54.300;18.592;2022-10-31T03:13:14;9.20;99.99
67249;SHT31;63247;54.300;18.592;2022-10-31T03:15:45;9.19;99.99
67249;SHT31;63247;54.300;18.592;2022-10-31T03:18:43;9.19;99.99
67249;SHT31;63247;54.300;18.592;2022-10-31T03:21:17;9.18;99.99
67249;SHT31;63247;54.300;18.592;2022-10-31T03:23:46;9.18;99.99
67249;SHT31;63247;54.300;18.592;2022-10-31T03:26:14;9.14;99.99
67249;SHT31;63247;54.300;18.592;2022-10-31T03:28:46;9.02;99.99
67249;SHT31;63247;54.300;18.592;2022-10-31T03:31:18;8.93;99.99
67249;SHT31;63247;54.300;18.592;2022-10-31T03:33:46;8.79;99.99
67249;SHT31;63247;54.300;18.592;2022-10-31T03:36:14;8.69;99.99
67249;SHT31;63247;54.300;18.592;2022-10-31T03:38:42;8.67;99.99
67249;SHT31;63247;54.300;18.592;2022-10-31T03:41:12;8.46;99.99
67249;SHT31;63247;54.300;18.592;2022-10-31T03:43:42;8.25;99.99
67249;SHT31;63247;54.300;18.592;2022-10-31T03:46:12;8.16;99.99
67249;SHT31;63247;54.300;18.592;2022-10-31T03:48:38;8.19;99.99
67249;SHT31;63247;54.300;18.592;2022-10-31T03:54:09;8.19;99.99
67249;SHT31;63247;54.300;18.592;2022-10-31T03:56:41;8.10;99.99
67249;SHT31;63247;54.300;18.592;2022-10-31T03:59:20;7.89;99.99
67249;SHT31;63247;54.300;18.592;2022-10-31T04:01:50;7.91;99.99
67249;SHT31;63247;54.300;18.592;2022-10-31T04:04:18;7.79;99.99
67249;SHT31;63247;54.300;18.592;2022-10-31T04:06:46;7.89;99.99
67249;SHT31;63247;54.300;18.592;2022-10-31T04:09:13;7.85;99.99
67249;SHT31;63247;54.300;18.592;2022-10-31T04:11:48;7.81;99.99
67249;SHT31;63247;54.300;18.592;2022-10-31T04:14:15;7.79;99.99
67249;SHT31;63247;54.300;18.592;2022-10-31T04:16:42;7.75;99.99
67249;SHT31;63247;54.300;18.592;2022-10-31T04:19:09;7.70;99.99
67249;SHT31;63247;54.300;18.592;2022-10-31T04:21:35;7.72;99.99
67249;SHT31;63247;54.300;18.592;2022-10-31T04:24:01;7.70;99.99
67249;SHT31;63247;54.300;18.592;2022-10-31T04:26:26;7.82;99.99
67249;SHT31;63247;54.300;18.592;2022-10-31T04:28:52;7.79;99.99
67249;SHT31;63247;54.300;18.592;2022-10-31T04:31:17;7.82;99.99
67249;SHT31;63247;54.300;18.592;2022-10-31T04:33:43;7.82;99.99
67249;SHT31;63247;54.300;18.592;2022-10-31T04:36:08;7.86;99.99
67249;SHT31;63247;54.300;18.592;2022-10-31T04:38:34;7.86;99.99
67249;SHT31;63247;54.300;18.592;2022-10-31T04:40:59;7.88;99.99
67249;SHT31;63247;54.300;18.592;2022-10-31T04:43:25;7.86;99.99
67249;SHT31;63247;54.300;18.592;2022-10-31T04:45:50;7.99;99.99
67249;SHT31;63247;54.300;18.592;2022-10-31T04:48:16;7.99;99.99
67249;SHT31;63247;54.300;18.592;2022-10-31T04:50:41;7.93;99.99
67249;SHT31;63247;54.300;18.592;2022-10-31T04:53:07;7.93;99.99
67249;SHT31;63247;54.300;18.592;2022-10-31T04:55:32;8.06;99.99
67249;SHT31;63247;54.300;18.592;2022-10-31T04:57:58;8.06;99.99
67249;SHT31;63247;54.300;18.592;2022-10-31T05:00:24;8.12;99.99
67249;SHT31;63247;54.300;18.592;2022-10-31T05:02:51;8.14;99.99
67249;SHT31;63247;54.300;18.592;2022-10-31T05:05:19;8.22;99.99
67249;SHT31;63247;54.300;18.592;2022-10-31T05:07:46;8.32;99.99
67249;SHT31;63247;54.300;18.592;2022-10-31T05:10:15;8.44;99.99
67249;SHT31;63247;54.300;18.592;2022-10-31T05:12:49;8.51;99.99
67249;SHT31;63247;54.300;18.592;2022-10-31T05:15:15;8.54;99.99
67249;SHT31;63247;54.300;18.592;2022-10-31T05:17:41;8.63;99.99
67249;SHT31;63247;54.300;18.592;2022-10-31T05:20:07;8.64;99.99
67249;SHT31;63247;54.300;18.592;2022-10-31T05:22:32;8.63;99.99
67249;SHT31;63247;54.300;18.592;2022-10-31T05:24:58;8.68;99.99
67249;SHT31;63247;54.300;18.592;2022-10-31T05:27:23;8.72;99.99
67249;SHT31;63247;54.300;18.592;2022-10-31T05:29:49;8.81;99.99
67249;SHT31;63247;54.300;18.592;2022-10-31T05:32:14;8.81;99.99
67249;SHT31;63247;54.300;18.592;2022-10-31T05:34:40;8.84;99.99
67249;SHT31;63247;54.300;18.592;2022-10-31T05:37:05;8.79;99.99
67249;SHT31;63247;54.300;18.592;2022-10-31T05:39:30;8.82;99.99
67249;SHT31;63247;54.300;18.592;2022-10-31T05:41:56;8.87;99.99
67249;SHT31;63247;54.300;18.592;2022-10-31T05:44:21;8.88;99.99
67249;SHT31;63247;54.300;18.592;2022-10-31T05:46:47;8.93;99.99
67249;SHT31;63247;54.300;18.592;2022-10-31T05:49:12;9.02;99.99
67249;SHT31;63247;54.300;18.592;2022-10-31T05:51:38;9.06;99.99
67249;SHT31;63247;54.300;18.592;2022-10-31T05:54:03;9.15;99.99
67249;SHT31;63247;54.300;18.592;2022-10-31T05:56:29;9.22;99.99
67249;SHT31;63247;54.300;18.592;2022-10-31T05:58:54;9.25;99.99
67249;SHT31;63247;54.300;18.592;2022-10-31T06:01:20;9.25;99.99
67249;SHT31;63247;54.300;18.592;2022-10-31T06:03:45;9.22;99.99
67249;SHT31;63247;54.300;18.592;2022-10-31T06:06:11;9.27;99.99
67249;SHT31;63247;54.300;18.592;2022-10-31T06:08:36;9.27;99.99
67249;SHT31;63247;54.300;18.592;2022-10-31T06:11:02;9.33;99.99
67249;SHT31;63247;54.300;18.592;2022-10-31T06:13:27;9.32;99.99
67249;SHT31;63247;54.300;18.592;2022-10-31T06:15:52;9.40;99.99
67249;SHT31;63247;54.300;18.592;2022-10-31T06:18:18;9.40;99.99
67249;SHT31;63247;54.300;18.592;2022-10-31T06:20:43;9.39;99.99
67249;SHT31;63247;54.300;18.592;2022-10-31T06:23:09;9.39;99.99
67249;SHT31;63247;54.300;18.592;2022-10-31T06:25:34;9.44;99.99
67249;SHT31;63247;54.300;18.592;2022-10-31T06:28:00;9.47;99.99
67249;SHT31;63247;54.300;18.592;2022-10-31T06:30:25;9.42;99.99
67249;SHT31;63247;54.300;18.592;2022-10-31T06:32:51;9.42;99.99
67249;SHT31;63247;54.300;18.592;2022-10-31T06:35:17;9.51;99.99
67249;SHT31;63247;54.300;18.592;2022-10-31T06:37:42;9.57;99.99
67249;SHT31;63247;54.300;18.592;2022-10-31T06:40:08;9.65;99.99
67249;SHT31;63247;54.300;18.592;2022-10-31T06:42:33;9.71;99.99
67249;SHT31;63247;54.300;18.592;2022-10-31T06:44:59;9.74;99.99
67249;SHT31;63247;54.300;18.592;2022-10-31T06:47:24;9.81;99.99
67249;SHT31;63247;54.300;18.592;2022-10-31T06:49:50;9.90;99.99
67249;SHT31;63247;54.300;18.592;2022-10-31T06:52:15;9.93;99.99
67249;SHT31;63247;54.300;18.592;2022-10-31T06:54:41;9.97;99.99
67249;SHT31;63247;54.300;18.592;2022-10-31T06:57:06;10.01;99.99
67249;SHT31;63247;54.300;18.592;2022-10-31T06:59:31;10.05;99.99
67249;SHT31;63247;54.300;18.592;2022-10-31T07:01:57;10.12;99.99
67249;SHT31;63247;54.300;18.592;2022-10-31T07:04:23;10.22;99.99
67249;SHT31;63247;54.300;18.592;2022-10-31T07:06:51;10.21;99.99
67249;SHT31;63247;54.300;18.592;2022-10-31T07:09:17;10.26;99.99
67249;SHT31;63247;54.300;18.592;2022-10-31T07:11:43;10.36;99.99
67249;SHT31;63247;54.300;18.592;2022-10-31T07:14:08;10.39;99.99
67249;SHT31;63247;54.300;18.592;2022-10-31T07:16:34;10.41;99.99
67249;SHT31;63247;54.300;18.592;2022-10-31T07:18:59;10.49;99.99
67249;SHT31;63247;54.300;18.592;2022-10-31T07:21:24;10.55;99.99
67249;SHT31;63247;54.300;18.592;2022-10-31T07:23:50;10.57;99.99
67249;SHT31;63247;54.300;18.592;2022-10-31T07:26:15;10.67;99.99
67249;SHT31;63247;54.300;18.592;2022-10-31T07:28:41;10.69;99.99
67249;SHT31;63247;54.300;18.592;2022-10-31T07:31:06;10.71;99.99
67249;SHT31;63247;54.300;18.592;2022-10-31T07:33:32;10.77;99.99
67249;SHT31;63247;54.300;18.592;2022-10-31T07:35:57;10.87;99.99
67249;SHT31;63247;54.300;18.592;2022-10-31T07:38:22;10.91;99.99
67249;SHT31;63247;54.300;18.592;2022-10-31T07:40:52;10.97;99.99
67249;SHT31;63247;54.300;18.592;2022-10-31T07:43:18;11.10;99.99
67249;SHT31;63247;54.300;18.592;2022-10-31T07:45:49;11.10;99.99
67249;SHT31;63247;54.300;18.592;2022-10-31T07:48:14;11.12;99.99
67249;SHT31;63247;54.300;18.592;2022-10-31T07:50:39;11.18;99.99
67249;SHT31;63247;54.300;18.592;2022-10-31T07:53:08;11.28;99.99
67249;SHT31;63247;54.300;18.592;2022-10-31T07:55:34;11.32;99.99
67249;SHT31;63247;54.300;18.592;2022-10-31T07:58:05;11.40;99.99
67249;SHT31;63247;54.300;18.592;2022-10-31T08:00:32;11.36;99.99
67249;SHT31;63247;54.300;18.592;2022-10-31T08:03:09;11.45;99.99
67249;SHT31;63247;54.300;18.592;2022-10-31T08:05:35;11.35;99.99
67249;SHT31;63247;54.300;18.592;2022-10-31T08:08:01;11.36;99.99
67249;SHT31;63247;54.300;18.592;2022-10-31T08:10:27;11.42;99.99
67249;SHT31;63247;54.300;18.592;2022-10-31T08:13:32;11.51;99.99
67249;SHT31;63247;54.300;18.592;2022-10-31T08:15:51;11.45;99.99
67249;SHT31;63247;54.300;18.592;2022-10-31T08:18:19;11.45;99.99
67249;SHT31;63247;54.300;18.592;2022-10-31T08:20:44;11.49;99.99
67249;SHT31;63247;54.300;18.592;2022-10-31T08:23:11;11.49;99.99
67249;SHT31;63247;54.300;18.592;2022-10-31T08:25:37;11.63;99.99
67249;SHT31;63247;54.300;18.592;2022-10-31T08:28:03;11.61;99.99
67249;SHT31;63247;54.300;18.592;2022-10-31T08:30:31;11.66;99.99
67249;SHT31;63247;54.300;18.592;2022-10-31T08:33:02;11.66;99.99
67249;SHT31;63247;54.300;18.592;2022-10-31T08:35:28;11.65;99.99
67249;SHT31;63247;54.300;18.592;2022-10-31T08:37:56;11.83;99.99
67249;SHT31;63247;54.300;18.592;2022-10-31T08:40:22;11.82;99.99
67249;SHT31;63247;54.300;18.592;2022-10-31T08:42:55;11.85;99.99
67249;SHT31;63247;54.300;18.592;2022-10-31T08:45:21;11.96;99.99
67249;SHT31;63247;54.300;18.592;2022-10-31T08:47:47;11.93;99.99
67249;SHT31;63247;54.300;18.592;2022-10-31T08:50:12;11.98;99.99
67249;SHT31;63247;54.300;18.592;2022-10-31T08:52:37;12.00;99.99
67249;SHT31;63247;54.300;18.592;2022-10-31T08:55:03;12.06;99.99
67249;SHT31;63247;54.300;18.592;2022-10-31T08:57:29;12.04;99.99
67249;SHT31;63247;54.300;18.592;2022-10-31T08:59:54;12.16;99.99
67249;SHT31;63247;54.300;18.592;2022-10-31T09:02:19;12.18;99.99
67249;SHT31;63247;54.300;18.592;2022-10-31T09:04:45;12.21;99.99
67249;SHT31;63247;54.300;18.592;2022-10-31T09:07:11;12.25;99.91
67249;SHT31;63247;54.300;18.592;2022-10-31T09:09:36;12.31;99.99
67249;SHT31;63247;54.300;18.592;2022-10-31T09:12:02;12.28;99.93
67249;SHT31;63247;54.300;18.592;2022-10-31T09:14:27;12.42;99.78
67249;SHT31;63247;54.300;18.592;2022-10-31T09:16:53;12.40;99.72
67249;SHT31;63247;54.300;18.592;2022-10-31T09:19:18;12.33;99.58
67249;SHT31;63247;54.300;18.592;2022-10-31T09:21:44;12.37;99.68
67249;SHT31;63247;54.300;18.592;2022-10-31T09:24:09;12.37;99.72
67249;SHT31;63247;54.300;18.592;2022-10-31T09:26:35;12.40;99.99
67249;SHT31;63247;54.300;18.592;2022-10-31T09:29:00;12.41;99.70
67249;SHT31;63247;54.300;18.592;2022-10-31T09:31:27;12.41;99.82
67249;SHT31;63247;54.300;18.592;2022-10-31T09:33:53;12.54;99.99
67249;SHT31;63247;54.300;18.592;2022-10-31T09:36:19;12.54;99.96
67249;SHT31;63247;54.300;18.592;2022-10-31T09:38:44;12.68;99.56
67249;SHT31;63247;54.300;18.592;2022-10-31T09:52:24;12.69;99.38
67249;SHT31;63247;54.300;18.592;2022-10-31T09:54:58;12.75;99.25
67249;SHT31;63247;54.300;18.592;2022-10-31T09:57:28;12.66;99.00
67249;SHT31;63247;54.300;18.592;2022-10-31T09:59:55;12.71;99.07
67249;SHT31;63247;54.300;18.592;2022-10-31T10:02:41;12.73;99.42
67249;SHT31;63247;54.300;18.592;2022-10-31T10:05:13;12.68;99.36
67249;SHT31;63247;54.300;18.592;2022-10-31T10:08:21;12.58;99.29
67249;SHT31;63247;54.300;18.592;2022-10-31T10:10:53;12.61;99.53
67249;SHT31;63247;54.300;18.592;2022-10-31T10:32:50;12.62;99.99
67249;SHT31;63247;54.300;18.592;2022-10-31T10:37:52;12.66;99.99
67249;SHT31;63247;54.300;18.592;2022-10-31T10:40:23;12.71;99.99
67249;SHT31;63247;54.300;18.592;2022-10-31T10:45:49;12.81;99.99
67249;SHT31;63247;54.300;18.592;2022-10-31T10:57:27;12.78;99.99
67249;SHT31;63247;54.300;18.592;2022-10-31T10:59:55;12.85;99.99
67249;SHT31;63247;54.300;18.592;2022-10-31T11:02:26;12.86;99.99
67249;SHT31;63247;54.300;18.592;2022-10-31T11:04:54;12.85;99.99
67249;SHT31;63247;54.300;18.592;2022-10-31T11:07:20;13.03;99.99
67249;SHT31;63247;54.300;18.592;2022-10-31T11:09:46;13.03;99.99
67249;SHT31;63247;54.300;18.592;2022-10-31T11:12:29;13.10;99.99
67249;SHT31;63247;54.300;18.592;2022-10-31T11:14:59;13.16;99.98
67249;SHT31;63247;54.300;18.592;2022-10-31T11:17:34;13.14;99.99
67249;SHT31;63247;54.300;18.592;2022-10-31T11:22:38;13.12;99.96
67249;SHT31;63247;54.300;18.592;2022-10-31T11:25:23;13.07;99.82
67249;SHT31;63247;54.300;18.592;2022-10-31T11:28:05;13.09;99.33
67249;SHT31;63247;54.300;18.592;2022-10-31T11:31:12;13.16;99.49
67249;SHT31;63247;54.300;18.592;2022-10-31T11:36:35;13.19;99.47
67249;SHT31;63247;54.300;18.592;2022-10-31T11:39:02;13.27;98.82
67249;SHT31;63247;54.300;18.592;2022-10-31T11:41:33;13.27;98.88
67249;SHT31;63247;54.300;18.592;2022-10-31T11:44:02;13.24;98.73
67249;SHT31;63247;54.300;18.592;2022-10-31T11:46:38;13.23;98.85
67249;SHT31;63247;54.300;18.592;2022-10-31T11:49:11;13.13;98.62
67249;SHT31;63247;54.300;18.592;2022-10-31T11:51:39;13.13;99.00
67249;SHT31;63247;54.300;18.592;2022-10-31T11:54:05;13.19;98.91
67249;SHT31;63247;54.300;18.592;2022-10-31T11:56:41;13.13;98.88
67249;SHT31;63247;54.300;18.592;2022-10-31T11:59:33;13.19;98.79
67249;SHT31;63247;54.300;18.592;2022-10-31T12:02:00;13.23;98.88
67249;SHT31;63247;54.300;18.592;2022-10-31T12:04:41;13.23;98.81
67249;SHT31;63247;54.300;18.592;2022-10-31T12:07:08;13.19;98.80
67249;SHT31;63247;54.300;18.592;2022-10-31T12:09:36;13.19;98.96
67249;SHT31;63247;54.300;18.592;2022-10-31T12:23:41;13.23;98.73
67249;SHT31;63247;54.300;18.592;2022-10-31T12:39:35;13.26;97.97
67249;SHT31;63247;54.300;18.592;2022-10-31T12:56:47;13.17;98.01
67249;SHT31;63247;54.300;18.592;2022-10-31T13:02:04;13.21;97.92
67249;SHT31;63247;54.300;18.592;2022-10-31T13:07:12;13.14;98.18
67249;SHT31;63247;54.300;18.592;2022-10-31T13:12:27;13.16;98.35
67249;SHT31;63247;54.300;18.592;2022-10-31T13:15:01;13.12;98.35
67249;SHT31;63247;54.300;18.592;2022-10-31T13:17:33;13.12;98.36
67249;SHT31;63247;54.300;18.592;2022-10-31T13:22:39;13.02;98.66
67249;SHT31;63247;54.300;18.592;2022-10-31T13:25:15;13.00;98.93
67249;SHT31;63247;54.300;18.592;2022-10-31T13:27:51;13.09;98.93
67249;SHT31;63247;54.300;18.592;2022-10-31T13:30:23;13.04;98.74
67249;SHT31;63247;54.300;18.592;2022-10-31T13:38:33;13.04;98.88
67249;SHT31;63247;54.300;18.592;2022-10-31T13:41:11;13.04;98.77
67249;SHT31;63247;54.300;18.592;2022-10-31T13:44:04;13.00;98.74
67249;SHT31;63247;54.300;18.592;2022-10-31T13:46:37;13.02;98.72
67249;SHT31;63247;54.300;18.592;2022-10-31T13:49:04;13.02;98.57
67249;SHT31;63247;54.300;18.592;2022-10-31T13:51:34;12.99;98.77
67249;SHT31;63247;54.300;18.592;2022-10-31T13:54:06;12.99;98.65
67249;SHT31;63247;54.300;18.592;2022-10-31T13:56:48;12.96;98.53
67249;SHT31;63247;54.300;18.592;2022-10-31T13:59:18;12.95;98.57
67249;SHT31;63247;54.300;18.592;2022-10-31T14:01:57;12.89;98.67
67249;SHT31;63247;54.300;18.592;2022-10-31T14:04:36;12.83;98.82
67249;SHT31;63247;54.300;18.592;2022-10-31T14:07:09;12.83;98.95
67249;SHT31;63247;54.300;18.592;2022-10-31T14:12:34;12.81;99.15
67249;SHT31;63247;54.300;18.592;2022-10-31T14:17:51;12.79;99.25
67249;SHT31;63247;54.300;18.592;2022-10-31T14:22:43;12.75;99.43
67249;SHT31;63247;54.300;18.592;2022-10-31T14:25:31;12.72;99.44
67249;SHT31;63247;54.300;18.592;2022-10-31T14:27:58;12.72;99.57
67249;SHT31;63247;54.300;18.592;2022-10-31T14:30:26;12.69;99.33
67249;SHT31;63247;54.300;18.592;2022-10-31T14:32:56;12.65;99.43
67249;SHT31;63247;54.300;18.592;2022-10-31T14:35:30;12.65;99.54
67249;SHT31;63247;54.300;18.592;2022-10-31T14:38:48;12.59;99.61
67249;SHT31;63247;54.300;18.592;2022-10-31T14:44:52;12.64;99.80
67249;SHT31;63247;54.300;18.592;2022-10-31T14:52:52;12.61;99.80
67249;SHT31;63247;54.300;18.592;2022-10-31T14:55:19;12.55;99.76
67249;SHT31;63247;54.300;18.592;2022-10-31T14:57:59;12.58;99.70
67249;SHT31;63247;54.300;18.592;2022-10-31T15:00:25;12.49;99.77
67249;SHT31;63247;54.300;18.592;2022-10-31T15:03:06;12.51;99.76
67249;SHT31;63247;54.300;18.592;2022-10-31T15:05:41;12.49;99.89
67249;SHT31;63247;54.300;18.592;2022-10-31T15:08:14;12.49;99.99
67249;SHT31;63247;54.300;18.592;2022-10-31T15:10:44;12.51;99.99
67249;SHT31;63247;54.300;18.592;2022-10-31T15:13:18;12.54;99.92
67249;SHT31;63247;54.300;18.592;2022-10-31T15:15:44;12.51;99.99
67249;SHT31;63247;54.300;18.592;2022-10-31T15:18:18;12.46;99.99
67249;SHT31;63247;54.300;18.592;2022-10-31T15:20:45;12.54;99.99
67249;SHT31;63247;54.300;18.592;2022-10-31T15:25:46;12.48;99.99
67249;SHT31;63247;54.300;18.592;2022-10-31T15:28:21;12.51;99.99
67249;SHT31;63247;54.300;18.592;2022-10-31T15:30:52;12.48;99.99
67249;SHT31;63247;54.300;18.592;2022-10-31T15:33:26;12.58;99.99
67249;SHT31;63247;54.300;18.592;2022-10-31T15:35:59;12.54;99.99
67249;SHT31;63247;54.300;18.592;2022-10-31T15:38:25;12.58;99.99
67249;SHT31;63247;54.300;18.592;2022-10-31T15:40:54;12.49;99.99
67249;SHT31;63247;54.300;18.592;2022-10-31T15:43:20;12.51;99.99
67249;SHT31;63247;54.300;18.592;2022-10-31T15:45:46;12.49;99.99
67249;SHT31;63247;54.300;18.592;2022-10-31T15:48:31;12.49;99.99
67249;SHT31;63247;54.300;18.592;2022-10-31T15:50:59;12.49;99.99
67249;SHT31;63247;54.300;18.592;2022-10-31T15:53:28;12.45;99.99
67249;SHT31;63247;54.300;18.592;2022-10-31T15:55:58;12.45;99.99
67249;SHT31;63247;54.300;18.592;2022-10-31T15:58:25;12.51;99.99
67249;SHT31;63247;54.300;18.592;2022-10-31T16:01:06;12.52;99.99
67249;SHT31;63247;54.300;18.592;2022-10-31T16:03:43;12.48;99.99
67249;SHT31;63247;54.300;18.592;2022-10-31T16:06:19;12.48;99.99
67249;SHT31;63247;54.300;18.592;2022-10-31T16:08:48;12.48;99.99
67249;SHT31;63247;54.300;18.592;2022-10-31T16:16:23;12.49;99.99
67249;SHT31;63247;54.300;18.592;2022-10-31T16:18:50;12.51;99.99
67249;SHT31;63247;54.300;18.592;2022-10-31T16:21:24;12.49;99.99
67249;SHT31;63247;54.300;18.592;2022-10-31T16:23:55;12.49;99.99
67249;SHT31;63247;54.300;18.592;2022-10-31T16:26:23;12.49;99.99
67249;SHT31;63247;54.300;18.592;2022-10-31T16:28:57;12.49;99.99
67249;SHT31;63247;54.300;18.592;2022-10-31T16:31:35;12.48;99.99
67249;SHT31;63247;54.300;18.592;2022-10-31T16:34:14;12.45;99.99
67249;SHT31;63247;54.300;18.592;2022-10-31T16:36:40;12.44;99.99
67249;SHT31;63247;54.300;18.592;2022-10-31T16:39:06;12.46;99.99
67249;SHT31;63247;54.300;18.592;2022-10-31T16:41:35;12.46;99.99
67249;SHT31;63247;54.300;18.592;2022-10-31T16:44:02;12.44;99.99
67249;SHT31;63247;54.300;18.592;2022-10-31T16:46:28;12.42;99.99
67249;SHT31;63247;54.300;18.592;2022-10-31T16:48:54;12.45;99.99
67249;SHT31;63247;54.300;18.592;2022-10-31T16:51:20;12.52;99.99
67249;SHT31;63247;54.300;18.592;2022-10-31T16:53:46;12.58;99.99
67249;SHT31;63247;54.300;18.592;2022-10-31T16:56:20;12.55;99.99
67249;SHT31;63247;54.300;18.592;2022-10-31T16:58:48;12.48;99.99
67249;SHT31;63247;54.300;18.592;2022-10-31T17:01:13;12.48;99.99
67249;SHT31;63247;54.300;18.592;2022-10-31T17:03:39;12.45;99.99
67249;SHT31;63247;54.300;18.592;2022-10-31T17:06:05;12.45;99.99
67249;SHT31;63247;54.300;18.592;2022-10-31T17:08:30;12.44;99.99
67249;SHT31;63247;54.300;18.592;2022-10-31T17:10:56;12.45;99.99
67249;SHT31;63247;54.300;18.592;2022-10-31T17:13:27;12.44;99.99
67249;SHT31;63247;54.300;18.592;2022-10-31T17:15:55;12.41;99.99
67249;SHT31;63247;54.300;18.592;2022-10-31T17:18:21;12.38;99.99
67249;SHT31;63247;54.300;18.592;2022-10-31T17:20:47;12.41;99.99
67249;SHT31;63247;54.300;18.592;2022-10-31T17:23:14;12.38;99.99
67249;SHT31;63247;54.300;18.592;2022-10-31T17:25:40;12.40;99.99
67249;SHT31;63247;54.300;18.592;2022-10-31T17:28:06;12.40;99.99
67249;SHT31;63247;54.300;18.592;2022-10-31T17:30:32;12.38;99.99
67249;SHT31;63247;54.300;18.592;2022-10-31T17:32:57;12.40;99.99
67249;SHT31;63247;54.300;18.592;2022-10-31T17:35:23;12.38;99.99
67249;SHT31;63247;54.300;18.592;2022-10-31T17:37:49;12.37;99.99
67249;SHT31;63247;54.300;18.592;2022-10-31T17:40:20;12.35;99.99
67249;SHT31;63247;54.300;18.592;2022-10-31T17:42:50;12.34;99.99
67249;SHT31;63247;54.300;18.592;2022-10-31T17:45:16;12.35;99.99
67249;SHT31;63247;54.300;18.592;2022-10-31T17:47:41;12.35;99.99
67249;SHT31;63247;54.300;18.592;2022-10-31T17:50:07;12.34;99.99
67249;SHT31;63247;54.300;18.592;2022-10-31T17:52:32;12.31;99.99
67249;SHT31;63247;54.300;18.592;2022-10-31T17:54:58;12.35;99.99
67249;SHT31;63247;54.300;18.592;2022-10-31T17:57:23;12.33;99.99
67249;SHT31;63247;54.300;18.592;2022-10-31T17:59:49;12.33;99.99
67249;SHT31;63247;54.300;18.592;2022-10-31T18:02:14;12.31;99.99
67249;SHT31;63247;54.300;18.592;2022-10-31T18:04:40;12.30;99.99
67249;SHT31;63247;54.300;18.592;2022-10-31T18:07:05;12.33;99.99
67249;SHT31;63247;54.300;18.592;2022-10-31T18:09:31;12.27;99.99